createdAt,value
2022-08-18T00:05:06.661Z,99.90
2022-08-18T00:12:17.546Z,99.90
2022-08-18T00:19:18.489Z,99.90
2022-08-18T00:26:19.275Z,99.90
2022-08-18T00:33:20.212Z,99.90
2022-08-18T00:40:24.294Z,99.90
2022-08-18T00:47:36.448Z,99.90
2022-08-18T00:54:50.542Z,99.90
2022-08-18T01:02:16.299Z,99.90
2022-08-18T01:09:22.673Z,99.90
2022-08-18T01:16:56.603Z,99.90
2022-08-18T01:24:12.969Z,99.90
2022-08-18T01:31:32.621Z,99.90
2022-08-18T01:38:33.310Z,99.90
2022-08-18T01:45:34.577Z,99.90
2022-08-18T01:52:35.473Z,99.90
2022-08-18T01:59:36.171Z,99.90
2022-08-18T02:06:36.999Z,99.90
2022-08-18T02:13:40.272Z,99.90
2022-08-18T02:20:40.887Z,99.90
2022-08-18T02:27:41.197Z,99.90
2022-08-18T02:34:42.649Z,99.90
2022-08-18T02:41:43.300Z,99.90
2022-08-18T02:48:43.663Z,99.90
2022-08-18T02:55:44.172Z,99.90
2022-08-18T03:02:49.021Z,99.90
2022-08-18T03:09:49.254Z,99.90
2022-08-18T03:16:54.211Z,99.90
2022-08-18T03:24:01.187Z,99.90
2022-08-18T03:31:03.146Z,99.90
2022-08-18T03:38:04.705Z,99.90
2022-08-18T03:45:12.505Z,99.90
2022-08-18T03:52:18.003Z,99.90
2022-08-18T03:59:24.060Z,99.90
2022-08-18T04:06:29.852Z,99.90
2022-08-18T04:13:36.146Z,99.90
2022-08-18T04:20:36.470Z,99.90
2022-08-18T04:27:39.441Z,99.90
2022-08-18T04:34:39.960Z,99.90
2022-08-18T04:41:43.266Z,99.90
2022-08-18T04:48:43.794Z,99.90
2022-08-18T04:55:52.378Z,99.90
2022-08-18T05:02:54.358Z,99.90
2022-08-18T05:09:55.426Z,99.90
2022-08-18T05:16:59.344Z,99.90
2022-08-18T05:24:00.760Z,99.90
2022-08-18T05:31:10.625Z,99.90
2022-08-18T05:38:22.451Z,99.90
2022-08-18T05:45:23.622Z,99.90
2022-08-18T05:52:40.341Z,99.90
2022-08-18T05:59:42.992Z,99.90
2022-08-18T06:06:47.618Z,99.90
2022-08-18T06:13:49.884Z,99.90
2022-08-18T06:21:28.926Z,99.90
2022-08-18T06:28:52.317Z,99.90
2022-08-18T06:36:00.626Z,99.90
2022-08-18T06:43:02.340Z,99.90
2022-08-18T06:50:08.313Z,99.90
2022-08-18T06:57:22.936Z,99.90
2022-08-18T07:04:42.759Z,99.90
2022-08-18T07:12:02.911Z,99.90
2022-08-18T07:19:16.398Z,99.90
2022-08-18T07:26:18.157Z,99.90
2022-08-18T07:33:24.818Z,99.90
2022-08-18T07:40:35.022Z,99.90
2022-08-18T07:48:15.927Z,99.90
2022-08-18T07:55:28.220Z,99.90
2022-08-18T08:02:54.790Z,99.90
2022-08-18T08:10:04.673Z,99.90
2022-08-18T08:17:32.502Z,99.90
2022-08-18T08:25:22.427Z,99.90
2022-08-18T08:32:35.557Z,99.90
2022-08-18T08:39:45.305Z,99.90
2022-08-18T08:46:55.321Z,99.90
2022-08-18T08:54:17.243Z,99.90
2022-08-18T09:01:37.781Z,99.90
2022-08-18T09:09:06.190Z,99.90
2022-08-18T09:16:21.753Z,99.90
2022-08-18T09:23:27.590Z,99.90
2022-08-18T09:30:42.970Z,99.90
2022-08-18T09:38:20.499Z,99.90
2022-08-18T09:45:33.781Z,99.90
2022-08-18T09:52:37.291Z,99.90
2022-08-18T09:59:38.081Z,99.90
2022-08-18T10:06:39.103Z,99.90
2022-08-18T10:14:12.154Z,99.90
2022-08-18T10:21:23.060Z,99.90
2022-08-18T10:28:54.194Z,99.90
2022-08-18T10:35:59.693Z,99.90
2022-08-18T10:43:45.801Z,99.90
2022-08-18T10:50:58.617Z,99.90
2022-08-18T10:58:30.535Z,99.90
2022-08-18T11:05:31.870Z,99.90
2022-08-18T11:12:52.500Z,99.90
2022-08-18T11:19:54.387Z,99.90
2022-08-18T11:27:04.533Z,99.90
2022-08-18T11:34:19.920Z,99.90
2022-08-18T11:41:48.015Z,99.90
2022-08-18T11:48:52.658Z,99.90
2022-08-18T11:56:13.419Z,99.90
2022-08-18T12:03:28.558Z,99.90
2022-08-18T12:10:29.677Z,99.90
2022-08-18T12:17:31.804Z,99.90
2022-08-18T12:24:36.911Z,99.90
2022-08-18T12:31:42.578Z,99.90
2022-08-18T12:38:52.144Z,99.90
2022-08-18T12:45:58.222Z,99.90
2022-08-18T12:52:58.568Z,99.90
2022-08-18T12:59:59.262Z,99.90
2022-08-18T13:07:01.950Z,99.90
2022-08-18T13:14:08.674Z,99.90
2022-08-18T13:21:11.460Z,99.90
2022-08-18T13:28:11.880Z,99.90
2022-08-18T13:35:14.758Z,99.90
2022-08-18T13:42:26.512Z,99.90
2022-08-18T13:49:30.707Z,99.90
2022-08-18T13:56:31.842Z,99.90
2022-08-18T14:03:46.778Z,99.90
2022-08-18T14:10:52.166Z,99.90
2022-08-18T14:17:52.698Z,99.90
2022-08-18T14:25:12.970Z,99.90
2022-08-18T14:32:18.087Z,99.90
2022-08-18T14:39:18.777Z,99.90
2022-08-18T14:53:24.980Z,99.90
2022-08-18T15:00:27.950Z,99.90
2022-08-18T15:07:28.531Z,99.90
2022-08-18T15:14:34.751Z,99.90
2022-08-18T15:21:54.006Z,99.90
2022-08-18T15:28:55.489Z,99.90
2022-08-18T15:36:04.460Z,99.90
2022-08-18T15:43:10.576Z,98.60
2022-08-18T15:50:22.452Z,99.00
2022-08-18T15:57:39.212Z,99.00
2022-08-18T16:04:41.339Z,98.30
2022-08-18T16:11:45.158Z,98.10
2022-08-18T16:18:46.113Z,97.20
2022-08-18T16:25:46.163Z,97.00
2022-08-18T16:32:48.085Z,96.70
2022-08-18T16:39:48.853Z,96.80
2022-08-18T16:46:51.861Z,97.20
2022-08-18T16:53:53.347Z,97.50
2022-08-18T17:01:18.654Z,97.40
2022-08-18T17:08:19.685Z,97.30
2022-08-18T17:15:20.126Z,97.70
2022-08-18T17:22:20.520Z,97.80
2022-08-18T17:29:46.177Z,98.00
2022-08-18T17:36:55.784Z,98.20
2022-08-18T17:44:00.725Z,98.50
2022-08-18T17:51:30.071Z,98.70
2022-08-18T17:58:40.594Z,98.80
2022-08-18T18:05:54.586Z,99.00
2022-08-18T18:13:12.340Z,99.20
2022-08-18T18:20:24.515Z,99.20
2022-08-18T18:27:27.855Z,99.40
2022-08-18T18:34:33.015Z,99.60
2022-08-18T18:41:36.894Z,99.80
2022-08-18T18:49:07.802Z,99.90
2022-08-18T18:56:29.897Z,99.90
2022-08-18T19:03:45.851Z,99.70
2022-08-18T19:11:01.399Z,99.80
2022-08-18T19:18:13.798Z,99.90
2022-08-18T19:25:17.347Z,99.90
2022-08-18T19:32:24.125Z,99.90
2022-08-18T19:39:35.166Z,99.90
2022-08-18T19:46:47.841Z,99.90
2022-08-18T19:53:53.881Z,99.90
2022-08-18T20:01:04.333Z,99.90
2022-08-18T20:08:37.097Z,99.90
2022-08-18T20:16:12.895Z,99.90
2022-08-18T20:23:33.067Z,99.90
2022-08-18T20:31:12.439Z,99.90
2022-08-18T20:38:28.999Z,99.90
2022-08-18T20:45:34.986Z,99.90
2022-08-18T20:53:12.838Z,99.90
2022-08-18T21:00:22.657Z,99.90
2022-08-18T21:07:37.431Z,99.90
2022-08-18T21:14:38.264Z,99.90
2022-08-18T21:21:44.020Z,99.90
2022-08-18T21:28:49.421Z,99.90
2022-08-18T21:35:49.961Z,99.90
2022-08-18T21:42:52.229Z,99.90
2022-08-18T21:50:00.407Z,99.90
2022-08-18T21:57:24.185Z,99.90
2022-08-18T22:04:37.869Z,99.90
2022-08-18T22:12:01.380Z,99.90
2022-08-18T22:19:11.868Z,99.90
2022-08-18T22:26:23.747Z,99.90
2022-08-18T22:33:24.513Z,99.90
2022-08-18T22:40:24.969Z,99.90
2022-08-18T22:47:25.888Z,99.90
2022-08-18T22:54:26.634Z,99.90
2022-08-18T23:01:27.790Z,99.90
2022-08-18T23:08:31.790Z,99.90
2022-08-18T23:15:48.813Z,99.90
2022-08-18T23:22:49.585Z,99.90
2022-08-18T23:29:49.886Z,99.90
2022-08-18T23:37:01.157Z,99.90
2022-08-18T23:44:01.912Z,99.90
2022-08-18T23:51:03.007Z,99.90
2022-08-18T23:58:04.442Z,99.90
